Latest Weather Observations for Spring Bay

IDT60801

Issued at 9:31 pm EST Wednesday 29 July 2015 (issued every 30 minutes, with the page automatically refreshed every 10 minutes)

About weather observations | Map of weather stations | Latest weather observations for TAS | Other Formats
Station Details ID: 092133 Name: SPRING BAY NTC AWS Lat: -42.55 Lon: 147.93 Height: 0.0 m
Data from the previous 72 hours. | See also: Recent months for locations in Tasmania
Date/Time
EST
Temp
°C
App
Temp
°C
Dew
Point
Rel
Hum
%
Delta-T
°C
Wind Press
QNH
hPa
Press
MSL
hPa
Rain
since 9 am
mm
Dir
 
Spd
km/h
Gust
km/h
Spd
kts
Gust
kts
29/09:30pm 10.7 - - - - - - - - - 1021.4 1021.4 -
29/09:00pm 10.8 - - - - - - - - - 1021.7 1021.7 -
29/08:30pm 10.8 - - - - - - - - - 1021.8 1021.8 -
29/08:00pm 10.9 - - - - - - - - - 1022.0 1022.0 -
29/07:30pm 11.1 - - - - - - - - - 1022.1 1022.1 -
29/07:00pm 11.1 - - - - - - - - - 1022.2 1022.2 -
29/06:30pm 11.4 - - - - - - - - - 1021.8 1021.8 -
29/06:00pm 11.4 - - - - - - - - - 1022.1 1022.1 -
29/05:30pm 11.5 - - - - - - - - - 1022.2 1022.2 -
29/05:00pm 11.6 - - - - - - - - - 1022.1 1022.1 -
29/04:30pm 11.8 - - - - - - - - - 1022.5 1022.5 -
29/04:00pm 11.6 - - - - - - - - - 1022.8 1022.8 -
29/03:30pm 11.5 - - - - - - - - - 1023.0 1023.0 -
29/03:00pm 11.2 - - - - - - - - - 1023.2 1023.2 -
29/02:30pm 10.9 - - - - - - - - - 1023.5 1023.5 -
29/02:00pm 10.8 - - - - - - - - - 1024.0 1024.0 -
29/01:30pm 10.4 - - - - - - - - - 1024.4 1024.4 -
29/01:00pm 10.4 - - - - - - - - - 1024.8 1024.8 -
29/12:30pm 10.9 - - - - - - - - - 1025.3 1025.3 -
29/12:00pm 10.4 - - - - - - - - - 1025.5 1025.5 -
29/11:30am 11.7 - - - - - - - - - 1026.2 1026.2 -
29/11:00am 10.5 - - - - - - - - - 1026.7 1026.7 -
29/10:30am 10.0 - - - - - - - - - 1027.1 1027.1 -
29/10:00am 10.5 - - - - - - - - - 1027.4 1027.4 -
29/09:30am 9.9 - - - - - - - - - 1027.5 1027.5 -
29/09:00am 9.2 - - - - - - - - - 1027.6 1027.6 -
29/08:30am 8.8 - - - - - - - - - 1027.7 1027.7 -
29/08:00am 8.6 - - - - - - - - - 1027.4 1027.4 -
29/07:30am 8.1 - - - - - - - - - 1027.3 1027.3 -
29/07:00am 8.3 - - - - - - - - - 1027.4 1027.4 -
29/06:30am 7.8 - - - - - - - - - 1027.6 1027.6 -
29/06:00am 8.9 - - - - - - - - - 1027.4 1027.4 -
29/05:30am 7.7 - - - - - - - - - 1027.2 1027.2 -
29/05:00am 5.8 - - - - - - - - - 1027.0 1027.0 -
29/04:30am 5.8 - - - - - - - - - 1027.0 1027.0 -
29/04:00am 5.9 - - - - - - - - - 1027.0 1027.0 -
29/03:30am 5.7 - - - - - - - - - 1027.0 1027.0 -
29/03:00am 6.0 - - - - - - - - - 1027.1 1027.1 -
29/02:30am 6.6 - - - - - - - - - 1027.3 1027.3 -
29/02:00am 6.6 - - - - - - - - - 1027.3 1027.3 -
29/01:30am 7.2 - - - - - - - - - 1027.3 1027.3 -
29/01:00am 7.9 - - - - - - - - - 1027.4 1027.4 -
29/12:30am 8.3 - - - - - - - - - 1027.7 1027.7 -
29/12:00am 8.6 - - - - - - - - - 1027.5 1027.5 -
 
Date/Time
EST
Temp
°C
App
Temp
°C
Dew
Point
Rel
Hum
%
Delta-T
°C
Wind Press
QNH
hPa
Press
MSL
hPa
Rain
since 9 am
mm
Dir
 
Spd
km/h
Gust
km/h
Spd
kts
Gust
kts
28/11:30pm 8.8 - - - - - - - - - 1027.4 1027.4 -
28/11:00pm 8.9 - - - - - - - - - 1027.4 1027.4 -
28/10:30pm 9.6 - - - - - - - - - 1027.5 1027.5 -
28/10:00pm 10.0 - - - - - - - - - 1027.4 1027.4 -
28/09:30pm 10.1 - - - - - - - - - 1027.2 1027.2 -
28/09:00pm 10.1 - - - - - - - - - 1027.1 1027.1 -
28/08:30pm 10.2 - - - - - - - - - 1026.8 1026.8 -
28/08:00pm 9.9 - - - - - - - - - 1026.6 1026.6 -
28/07:30pm 10.4 - - - - - - - - - 1026.5 1026.5 -
28/07:00pm 11.2 - - - - - - - - - 1026.4 1026.4 -
28/06:30pm 11.9 - - - - - - - - - 1026.1 1026.1 -
28/06:00pm 13.0 - - - - - - - - - 1025.8 1025.8 -
28/05:30pm 13.4 - - - - - - - - - 1025.3 1025.3 -
28/05:00pm 13.8 - - - - - - - - - 1025.0 1025.0 -
28/04:30pm 14.1 - - - - - - - - - 1024.7 1024.7 -
28/04:00pm 14.4 - - - - - - - - - 1024.6 1024.6 -
28/03:30pm 14.2 - - - - - - - - - 1024.4 1024.4 -
28/03:00pm 14.2 - - - - - - - - - 1024.3 1024.3 -
28/02:30pm 14.3 - - - - - - - - - 1024.2 1024.2 -
28/02:00pm 14.3 - - - - - - - - - 1024.1 1024.1 -
28/01:30pm 14.0 - - - - - - - - - 1024.4 1024.4 -
28/01:00pm 13.9 - - - - - - - - - 1024.4 1024.4 -
28/12:30pm 13.7 - - - - - - - - - 1024.7 1024.7 -
28/12:00pm 13.4 - - - - - - - - - 1024.9 1024.9 -
28/11:30am 13.0 - - - - - - - - - 1025.2 1025.2 -
28/11:00am 12.6 - - - - - - - - - 1025.6 1025.6 -
28/10:30am 11.8 - - - - - - - - - 1025.6 1025.6 -
28/10:00am 11.6 - - - - - - - - - 1025.2 1025.2 -
28/09:30am 10.7 - - - - - - - - - 1024.9 1024.9 -
28/09:00am 9.9 - - - - - - - - - 1024.9 1024.9 -
28/08:30am 10.3 - - - - - - - - - 1024.7 1024.7 -
28/08:00am 9.6 - - - - - - - - - 1024.4 1024.4 -
28/07:30am 9.8 - - - - - - - - - 1023.9 1023.9 -
28/07:00am 10.2 - - - - - - - - - 1023.6 1023.6 -
28/06:30am 10.1 - - - - - - - - - 1023.1 1023.1 -
28/06:00am 9.2 - - - - - - - - - 1023.0 1023.0 -
28/05:30am 10.0 - - - - - - - - - 1022.5 1022.5 -
28/05:00am 10.3 - - - - - - - - - 1022.2 1022.2 -
28/04:30am 10.2 - - - - - - - - - 1021.9 1021.9 -
28/04:00am 10.3 - - - - - - - - - 1021.8 1021.8 -
28/03:30am 10.2 - - - - - - - - - 1021.7 1021.7 -
28/03:00am 10.1 - - - - - - - - - 1021.5 1021.5 -
28/02:30am 9.9 - - - - - - - - - 1021.4 1021.4 -
28/02:00am 9.9 - - - - - - - - - 1021.2 1021.2 -
28/01:30am 9.7 - - - - - - - - - 1021.1 1021.1 -
28/01:00am 9.7 - - - - - - - - - 1021.1 1021.1 -
28/12:30am 9.9 - - - - - - - - - 1020.9 1020.9 -
28/12:00am 9.8 - - - - - - - - - 1020.9 1020.9 -
 
Date/Time
EST
Temp
°C
App
Temp
°C
Dew
Point
Rel
Hum
%
Delta-T
°C
Wind Press
QNH
hPa
Press
MSL
hPa
Rain
since 9 am
mm
Dir
 
Spd
km/h
Gust
km/h
Spd
kts
Gust
kts
27/11:30pm 9.5 - - - - - - - - - 1020.7 1020.7 -
27/11:00pm 9.8 - - - - - - - - - 1020.4 1020.4 -
27/10:30pm 9.9 - - - - - - - - - 1020.5 1020.5 -
27/10:00pm 9.6 - - - - - - - - - 1020.2 1020.2 -
27/09:30pm 9.2 - - - - - - - - - 1020.2 1020.2 -
27/09:00pm 9.1 - - - - - - - - - 1020.2 1020.2 -
27/08:30pm 10.0 - - - - - - - - - 1019.8 1019.8 -
27/08:00pm 10.3 - - - - - - - - - 1019.4 1019.4 -
27/07:30pm 10.7 - - - - - - - - - 1019.2 1019.2 -
27/07:00pm 11.0 - - - - - - - - - 1018.8 1018.8 -
27/06:30pm 10.9 - - - - - - - - - 1018.4 1018.4 -
27/06:00pm 11.0 - - - - - - - - - 1018.1 1018.1 -
27/05:30pm 11.1 - - - - - - - - - 1017.5 1017.5 -
27/05:00pm 11.2 - - - - - - - - - 1017.2 1017.2 -
27/04:30pm 11.5 - - - - - - - - - 1016.6 1016.6 -
27/04:00pm 11.6 - - - - - - - - - 1016.4 1016.4 -
27/03:30pm 11.9 - - - - - - - - - 1016.1 1016.1 -
27/03:00pm 11.7 - - - - - - - - - 1015.9 1015.9 -
27/02:30pm 11.1 - - - - - - - - - 1015.5 1015.5 -
27/02:00pm 10.7 - - - - - - - - - 1015.5 1015.5 -
27/01:30pm 11.7 - - - - - - - - - 1015.0 1015.0 -
27/01:00pm 11.7 - - - - - - - - - 1015.0 1015.0 -
27/12:30pm 11.1 - - - - - - - - - 1015.2 1015.2 -
27/12:00pm 10.9 - - - - - - - - - 1015.3 1015.3 -
27/11:30am 10.1 - - - - - - - - - 1015.5 1015.5 -
27/11:00am 9.8 - - - - - - - - - 1015.6 1015.6 -
27/10:30am 9.3 - - - - - - - - - 1015.4 1015.4 -
27/10:00am 9.1 - - - - - - - - - 1014.9 1014.9 -
27/09:30am 9.2 - - - - - - - - - 1014.8 1014.8 -
27/09:00am 8.7 - - - - - - - - - 1014.4 1014.4 -
27/08:30am 7.9 - - - - - - - - - 1013.7 1013.7 -
27/08:00am 7.4 - - - - - - - - - 1013.3 1013.3 -

Other Formats:

Comma delimited format used in spreadsheet applications
http://www.bom.gov.au/fwo/IDT60801/IDT60801.95987.axf

JavaScript Object Notation format (JSON) in row-major order
http://www.bom.gov.au/fwo/IDT60801/IDT60801.95987.json